Terminal Aerodrome Forecast
Issued by NWS

Home | Current Version | Previous Version | Text Only | Print | Product List | Glossary On
Versions: 1 2 3 4 5 6 7 8 9 10 11 12 13 14 15
000
FTUS43 KFGF 232300
TAFTVF
TAF
KTVF 232339Z 2400/2424 15015KT P6SM -RA OVC035
      TEMPO 2400/2404 4SM -RA OVC015
     FM240400 11015KT P6SM -RA OVC025
     FM240900 11010KT P6SM BKN025
      AMD LTD TO CLD VIS AND WIND=

USA.gov is the U.S. government's official web portal to all federal, state and local government web resources and services.